sensor_id;sensor_type;location;lat;lon;timestamp;pressure;altitude;pressure_sealevel;temperature;humidity
70916;BME280;58557;50.982;-3.222;2023-03-13T00:02:24;98809.48;;;10.67;95.75
70916;BME280;58557;50.982;-3.222;2023-03-13T00:04:50;98805.85;;;10.49;97.13
70916;BME280;58557;50.982;-3.222;2023-03-13T00:07:15;98809.59;;;11.48;94.44
70916;BME280;58557;50.982;-3.222;2023-03-13T00:09:41;98800.01;;;10.94;96.03
70916;BME280;58557;50.982;-3.222;2023-03-13T00:12:07;98797.73;;;11.01;95.36
70916;BME280;58557;50.982;-3.222;2023-03-13T00:14:32;98802.71;;;10.56;96.03
70916;BME280;58557;50.982;-3.222;2023-03-13T00:16:57;98782.60;;;10.46;96.92
70916;BME280;58557;50.982;-3.222;2023-03-13T00:19:23;98768.55;;;10.49;98.38
70916;BME280;58557;50.982;-3.222;2023-03-13T00:21:49;98777.23;;;10.31;100.00
70916;BME280;58557;50.982;-3.222;2023-03-13T00:24:14;98773.74;;;10.16;100.00
70916;BME280;58557;50.982;-3.222;2023-03-13T00:26:39;98756.19;;;10.71;99.10
70916;BME280;58557;50.982;-3.222;2023-03-13T00:29:04;98757.03;;;10.57;98.96
70916;BME280;58557;50.982;-3.222;2023-03-13T00:31:30;98749.49;;;10.72;97.92
70916;BME280;58557;50.982;-3.222;2023-03-13T00:33:58;98756.53;;;10.73;98.22
70916;BME280;58557;50.982;-3.222;2023-03-13T00:36:23;98740.49;;;10.48;98.49
70916;BME280;58557;50.982;-3.222;2023-03-13T00:38:47;98745.57;;;10.17;98.31
70916;BME280;58557;50.982;-3.222;2023-03-13T00:41:15;98736.85;;;10.75;98.76
70916;BME280;58557;50.982;-3.222;2023-03-13T00:43:40;98743.25;;;10.88;96.03
70916;BME280;58557;50.982;-3.222;2023-03-13T00:46:04;98742.12;;;10.24;98.33
70916;BME280;58557;50.982;-3.222;2023-03-13T00:48:30;98732.52;;;10.72;98.61
70916;BME280;58557;50.982;-3.222;2023-03-13T00:50:56;98723.47;;;10.56;97.60
70916;BME280;58557;50.982;-3.222;2023-03-13T00:53:21;98726.55;;;10.93;96.99
70916;BME280;58557;50.982;-3.222;2023-03-13T00:55:52;98713.94;;;10.55;98.15
70916;BME280;58557;50.982;-3.222;2023-03-13T00:58:13;98714.61;;;10.31;98.36
70916;BME280;58557;50.982;-3.222;2023-03-13T01:10:22;98691.05;;;11.11;95.62
70916;BME280;58557;50.982;-3.222;2023-03-13T01:12:47;98684.42;;;11.13;94.63
70916;BME280;58557;50.982;-3.222;2023-03-13T01:15:13;98688.92;;;11.03;95.61
70916;BME280;58557;50.982;-3.222;2023-03-13T01:17:39;98681.77;;;10.76;96.09
70916;BME280;58557;50.982;-3.222;2023-03-13T01:20:06;98681.08;;;11.24;94.82
70916;BME280;58557;50.982;-3.222;2023-03-13T01:22:30;98672.77;;;11.07;93.58
70916;BME280;58557;50.982;-3.222;2023-03-13T01:24:56;98681.54;;;11.74;92.64
70916;BME280;58557;50.982;-3.222;2023-03-13T01:27:22;98673.34;;;10.55;95.57
70916;BME280;58557;50.982;-3.222;2023-03-13T01:29:48;98677.42;;;10.80;94.39
70916;BME280;58557;50.982;-3.222;2023-03-13T01:32:13;98670.24;;;10.80;94.98
70916;BME280;58557;50.982;-3.222;2023-03-13T01:34:39;98661.42;;;11.85;91.69
70916;BME280;58557;50.982;-3.222;2023-03-13T01:37:05;98655.21;;;11.58;91.14
70916;BME280;58557;50.982;-3.222;2023-03-13T01:39:30;98655.17;;;11.58;90.37
70916;BME280;58557;50.982;-3.222;2023-03-13T01:41:56;98646.19;;;11.44;91.43
70916;BME280;58557;50.982;-3.222;2023-03-13T01:44:24;98662.08;;;11.52;91.30
70916;BME280;58557;50.982;-3.222;2023-03-13T01:46:48;98652.74;;;11.79;89.31
70916;BME280;58557;50.982;-3.222;2023-03-13T01:49:16;98655.74;;;11.41;91.71
70916;BME280;58557;50.982;-3.222;2023-03-13T01:51:43;98656.47;;;11.72;90.80
70916;BME280;58557;50.982;-3.222;2023-03-13T01:54:08;98654.75;;;11.57;92.97
70916;BME280;58557;50.982;-3.222;2023-03-13T01:56:36;98651.29;;;11.90;90.86
70916;BME280;58557;50.982;-3.222;2023-03-13T01:58:57;98650.30;;;12.10;88.89
70916;BME280;58557;50.982;-3.222;2023-03-13T02:01:22;98643.28;;;12.14;88.07
70916;BME280;58557;50.982;-3.222;2023-03-13T02:18:24;98640.45;;;10.38;95.73
70916;BME280;58557;50.982;-3.222;2023-03-13T02:20:51;98658.06;;;10.71;94.46
70916;BME280;58557;50.982;-3.222;2023-03-13T02:23:20;98635.23;;;10.22;95.63
70916;BME280;58557;50.982;-3.222;2023-03-13T02:25:42;98624.90;;;10.17;93.89
70916;BME280;58557;50.982;-3.222;2023-03-13T02:28:09;98624.60;;;10.97;92.53
70916;BME280;58557;50.982;-3.222;2023-03-13T02:30:32;98607.06;;;10.92;90.33
70916;BME280;58557;50.982;-3.222;2023-03-13T02:32:57;98599.20;;;11.12;88.19
70916;BME280;58557;50.982;-3.222;2023-03-13T02:35:23;98598.33;;;10.78;87.86
70916;BME280;58557;50.982;-3.222;2023-03-13T02:37:50;98594.71;;;11.44;86.16
70916;BME280;58557;50.982;-3.222;2023-03-13T02:40:17;98587.20;;;11.20;85.90
70916;BME280;58557;50.982;-3.222;2023-03-13T02:42:41;98587.17;;;11.19;86.49
70916;BME280;58557;50.982;-3.222;2023-03-13T02:45:05;98592.94;;;11.86;83.52
70916;BME280;58557;50.982;-3.222;2023-03-13T02:47:30;98569.45;;;11.19;85.13
70916;BME280;58557;50.982;-3.222;2023-03-13T02:49:55;98570.01;;;11.20;85.93
70916;BME280;58557;50.982;-3.222;2023-03-13T02:52:23;98567.69;;;11.07;86.66
70916;BME280;58557;50.982;-3.222;2023-03-13T02:54:48;98567.84;;;10.98;87.20
70916;BME280;58557;50.982;-3.222;2023-03-13T02:57:11;98567.57;;;10.70;90.92
70916;BME280;58557;50.982;-3.222;2023-03-13T02:59:37;98553.68;;;10.65;90.52
70916;BME280;58557;50.982;-3.222;2023-03-13T03:02:03;98545.73;;;10.51;90.76
70916;BME280;58557;50.982;-3.222;2023-03-13T03:04:28;98540.05;;;10.81;89.06
70916;BME280;58557;50.982;-3.222;2023-03-13T03:06:54;98540.98;;;10.77;89.92
70916;BME280;58557;50.982;-3.222;2023-03-13T03:09:20;98546.85;;;11.17;89.53
70916;BME280;58557;50.982;-3.222;2023-03-13T03:11:45;98544.21;;;11.17;89.44
70916;BME280;58557;50.982;-3.222;2023-03-13T03:14:11;98535.87;;;11.19;90.21
70916;BME280;58557;50.982;-3.222;2023-03-13T03:16:39;98540.94;;;11.07;90.68
70916;BME280;58557;50.982;-3.222;2023-03-13T03:19:02;98532.12;;;10.76;92.64
70916;BME280;58557;50.982;-3.222;2023-03-13T03:21:28;98538.05;;;10.80;92.82
70916;BME280;58557;50.982;-3.222;2023-03-13T03:23:55;98538.68;;;10.33;94.55
70916;BME280;58557;50.982;-3.222;2023-03-13T03:26:19;98540.89;;;10.25;96.64
70916;BME280;58557;50.982;-3.222;2023-03-13T03:28:45;98529.91;;;10.46;95.83
70916;BME280;58557;50.982;-3.222;2023-03-13T03:31:12;98525.85;;;10.10;95.37
70916;BME280;58557;50.982;-3.222;2023-03-13T03:33:36;98517.04;;;9.94;94.96
70916;BME280;58557;50.982;-3.222;2023-03-13T03:36:04;98514.86;;;9.94;92.86
70916;BME280;58557;50.982;-3.222;2023-03-13T03:38:28;98523.53;;;9.56;93.95
70916;BME280;58557;50.982;-3.222;2023-03-13T03:40:53;98509.86;;;10.18;91.95
70916;BME280;58557;50.982;-3.222;2023-03-13T03:43:19;98506.10;;;10.69;87.59
70916;BME280;58557;50.982;-3.222;2023-03-13T03:45:45;98513.00;;;10.59;87.91
70916;BME280;58557;50.982;-3.222;2023-03-13T03:48:10;98501.63;;;10.57;86.70
70916;BME280;58557;50.982;-3.222;2023-03-13T03:50:36;98496.29;;;10.04;86.68
70916;BME280;58557;50.982;-3.222;2023-03-13T03:53:02;98487.15;;;9.73;86.60
70916;BME280;58557;50.982;-3.222;2023-03-13T03:55:27;98492.78;;;10.13;84.60
70916;BME280;58557;50.982;-3.222;2023-03-13T03:57:53;98480.60;;;9.83;84.62
70916;BME280;58557;50.982;-3.222;2023-03-13T04:00:18;98483.53;;;10.20;84.24
70916;BME280;58557;50.982;-3.222;2023-03-13T04:02:44;98502.76;;;10.03;84.13
70916;BME280;58557;50.982;-3.222;2023-03-13T04:05:10;98492.99;;;10.22;83.77
70916;BME280;58557;50.982;-3.222;2023-03-13T04:07:35;98496.04;;;10.72;81.18
70916;BME280;58557;50.982;-3.222;2023-03-13T04:10:00;98499.47;;;10.06;85.28
70916;BME280;58557;50.982;-3.222;2023-03-13T04:12:26;98492.90;;;10.55;85.32
70916;BME280;58557;50.982;-3.222;2023-03-13T04:14:51;98500.80;;;10.48;85.69
70916;BME280;58557;50.982;-3.222;2023-03-13T04:17:16;98516.00;;;11.12;82.13
70916;BME280;58557;50.982;-3.222;2023-03-13T04:19:42;98488.80;;;11.15;81.15
70916;BME280;58557;50.982;-3.222;2023-03-13T04:22:07;98492.68;;;10.46;81.65
70916;BME280;58557;50.982;-3.222;2023-03-13T04:24:33;98490.06;;;10.95;80.56
70916;BME280;58557;50.982;-3.222;2023-03-13T04:26:59;98482.10;;;10.19;82.18
70916;BME280;58557;50.982;-3.222;2023-03-13T04:29:24;98474.32;;;10.75;80.65
70916;BME280;58557;50.982;-3.222;2023-03-13T04:31:49;98487.55;;;11.13;78.11
70916;BME280;58557;50.982;-3.222;2023-03-13T04:34:15;98487.26;;;10.26;79.40
70916;BME280;58557;50.982;-3.222;2023-03-13T04:36:40;98478.53;;;10.66;77.72
70916;BME280;58557;50.982;-3.222;2023-03-13T04:39:05;98467.38;;;9.96;80.89
70916;BME280;58557;50.982;-3.222;2023-03-13T04:41:31;98462.94;;;9.85;81.34
70916;BME280;58557;50.982;-3.222;2023-03-13T04:43:56;98465.17;;;10.09;80.97
70916;BME280;58557;50.982;-3.222;2023-03-13T04:46:22;98459.49;;;10.08;80.93
70916;BME280;58557;50.982;-3.222;2023-03-13T04:48:48;98466.68;;;10.25;80.33
70916;BME280;58557;50.982;-3.222;2023-03-13T04:51:13;98468.92;;;10.32;79.72
70916;BME280;58557;50.982;-3.222;2023-03-13T04:53:39;98464.41;;;9.92;79.80
70916;BME280;58557;50.982;-3.222;2023-03-13T04:56:04;98457.00;;;9.93;79.07
70916;BME280;58557;50.982;-3.222;2023-03-13T04:58:30;98461.44;;;9.55;80.97
70916;BME280;58557;50.982;-3.222;2023-03-13T05:00:55;98463.62;;;9.69;80.15
70916;BME280;58557;50.982;-3.222;2023-03-13T05:03:20;98443.59;;;9.55;81.26
70916;BME280;58557;50.982;-3.222;2023-03-13T05:05:46;98433.26;;;10.14;78.84
70916;BME280;58557;50.982;-3.222;2023-03-13T05:08:11;98433.07;;;10.14;76.30
70916;BME280;58557;50.982;-3.222;2023-03-13T05:10:36;98439.46;;;10.65;73.92
70916;BME280;58557;50.982;-3.222;2023-03-13T05:13:01;98443.74;;;9.99;75.78
70916;BME280;58557;50.982;-3.222;2023-03-13T05:15:27;98442.08;;;10.04;75.47
70916;BME280;58557;50.982;-3.222;2023-03-13T05:17:53;98441.39;;;9.82;76.27
70916;BME280;58557;50.982;-3.222;2023-03-13T05:20:18;98434.19;;;10.15;76.56
70916;BME280;58557;50.982;-3.222;2023-03-13T05:22:43;98440.92;;;9.65;78.92
70916;BME280;58557;50.982;-3.222;2023-03-13T05:25:10;98423.95;;;9.48;84.45
70916;BME280;58557;50.982;-3.222;2023-03-13T05:27:34;98417.84;;;9.91;84.31
70916;BME280;58557;50.982;-3.222;2023-03-13T05:30:00;98401.57;;;9.84;83.28
70916;BME280;58557;50.982;-3.222;2023-03-13T05:32:25;98400.32;;;9.61;83.67
70916;BME280;58557;50.982;-3.222;2023-03-13T05:34:50;98407.06;;;10.06;84.09
70916;BME280;58557;50.982;-3.222;2023-03-13T05:37:16;98397.58;;;9.50;85.39
70916;BME280;58557;50.982;-3.222;2023-03-13T05:39:41;98395.55;;;9.35;87.21
70916;BME280;58557;50.982;-3.222;2023-03-13T05:42:07;98393.00;;;9.57;85.83
70916;BME280;58557;50.982;-3.222;2023-03-13T05:44:33;98393.62;;;9.20;85.27
70916;BME280;58557;50.982;-3.222;2023-03-13T05:46:58;98408.69;;;9.41;85.84
70916;BME280;58557;50.982;-3.222;2023-03-13T05:49:24;98408.21;;;9.33;86.35
70916;BME280;58557;50.982;-3.222;2023-03-13T05:51:49;98403.88;;;9.22;85.16
70916;BME280;58557;50.982;-3.222;2023-03-13T05:54:15;98399.72;;;9.23;86.43
70916;BME280;58557;50.982;-3.222;2023-03-13T05:56:41;98388.35;;;9.41;86.48
70916;BME280;58557;50.982;-3.222;2023-03-13T05:59:06;98410.70;;;9.69;87.47
70916;BME280;58557;50.982;-3.222;2023-03-13T06:01:32;98411.09;;;9.37;88.80
70916;BME280;58557;50.982;-3.222;2023-03-13T06:03:57;98408.84;;;9.91;86.89
70916;BME280;58557;50.982;-3.222;2023-03-13T06:06:23;98405.21;;;9.22;89.39
70916;BME280;58557;50.982;-3.222;2023-03-13T06:08:48;98407.31;;;8.66;92.74
70916;BME280;58557;50.982;-3.222;2023-03-13T06:11:13;98388.12;;;8.46;93.91
70916;BME280;58557;50.982;-3.222;2023-03-13T06:13:38;98395.91;;;8.57;93.96
70916;BME280;58557;50.982;-3.222;2023-03-13T06:16:05;98388.85;;;8.08;95.86
70916;BME280;58557;50.982;-3.222;2023-03-13T06:18:34;98392.31;;;9.01;95.36
70916;BME280;58557;50.982;-3.222;2023-03-13T06:20:57;98384.52;;;8.90;93.60
70916;BME280;58557;50.982;-3.222;2023-03-13T06:23:20;98383.70;;;7.96;95.73
70916;BME280;58557;50.982;-3.222;2023-03-13T06:25:47;98380.55;;;8.48;93.73
70916;BME280;58557;50.982;-3.222;2023-03-13T06:28:11;98369.52;;;9.09;90.93
70916;BME280;58557;50.982;-3.222;2023-03-13T06:30:36;98375.26;;;9.32;89.51
70916;BME280;58557;50.982;-3.222;2023-03-13T06:33:02;98361.95;;;8.90;90.04
70916;BME280;58557;50.982;-3.222;2023-03-13T06:35:33;98378.34;;;8.89;90.50
70916;BME280;58557;50.982;-3.222;2023-03-13T06:37:53;98368.77;;;8.60;93.07
70916;BME280;58557;50.982;-3.222;2023-03-13T06:40:18;98365.22;;;8.24;93.67
70916;BME280;58557;50.982;-3.222;2023-03-13T06:42:44;98372.54;;;9.27;89.85
70916;BME280;58557;50.982;-3.222;2023-03-13T06:45:09;98370.75;;;9.08;89.61
70916;BME280;58557;50.982;-3.222;2023-03-13T06:47:34;98366.45;;;8.56;91.60
70916;BME280;58557;50.982;-3.222;2023-03-13T06:49:59;98364.60;;;8.49;91.82
70916;BME280;58557;50.982;-3.222;2023-03-13T06:52:30;98364.50;;;8.64;92.28
70916;BME280;58557;50.982;-3.222;2023-03-13T06:54:50;98360.09;;;8.75;92.37
70916;BME280;58557;50.982;-3.222;2023-03-13T06:57:15;98365.84;;;8.97;89.38
70916;BME280;58557;50.982;-3.222;2023-03-13T06:59:41;98354.03;;;9.02;90.59
70916;BME280;58557;50.982;-3.222;2023-03-13T07:02:08;98352.76;;;9.15;87.75
70916;BME280;58557;50.982;-3.222;2023-03-13T07:04:32;98345.44;;;9.53;84.67
70916;BME280;58557;50.982;-3.222;2023-03-13T07:06:57;98355.44;;;9.80;84.31
70916;BME280;58557;50.982;-3.222;2023-03-13T07:09:23;98357.37;;;9.22;83.98
70916;BME280;58557;50.982;-3.222;2023-03-13T07:11:49;98356.04;;;9.43;83.21
70916;BME280;58557;50.982;-3.222;2023-03-13T07:14:14;98355.99;;;9.27;84.71
70916;BME280;58557;50.982;-3.222;2023-03-13T07:16:40;98359.37;;;9.30;84.71
70916;BME280;58557;50.982;-3.222;2023-03-13T07:19:05;98344.11;;;9.41;83.01
70916;BME280;58557;50.982;-3.222;2023-03-13T07:21:31;98343.01;;;8.96;85.32
70916;BME280;58557;50.982;-3.222;2023-03-13T07:23:56;98356.54;;;8.83;85.27
70916;BME280;58557;50.982;-3.222;2023-03-13T07:26:22;98373.04;;;8.67;85.36
70916;BME280;58557;50.982;-3.222;2023-03-13T07:28:48;98353.50;;;8.55;86.24
70916;BME280;58557;50.982;-3.222;2023-03-13T07:31:14;98359.97;;;8.75;88.12
70916;BME280;58557;50.982;-3.222;2023-03-13T07:33:39;98365.18;;;8.95;85.90
70916;BME280;58557;50.982;-3.222;2023-03-13T07:36:05;98359.78;;;9.40;84.79
70916;BME280;58557;50.982;-3.222;2023-03-13T07:38:30;98355.28;;;10.00;80.74
70916;BME280;58557;50.982;-3.222;2023-03-13T07:40:56;98354.56;;;9.49;82.79
70916;BME280;58557;50.982;-3.222;2023-03-13T07:43:22;98350.68;;;9.24;83.94
70916;BME280;58557;50.982;-3.222;2023-03-13T07:45:52;98340.96;;;9.12;83.48
70916;BME280;58557;50.982;-3.222;2023-03-13T07:48:13;98356.25;;;9.24;83.02
70916;BME280;58557;50.982;-3.222;2023-03-13T07:50:38;98361.58;;;9.73;81.44
70916;BME280;58557;50.982;-3.222;2023-03-13T07:53:09;98349.76;;;9.62;80.46
70916;BME280;58557;50.982;-3.222;2023-03-13T07:55:29;98350.30;;;9.42;81.79
70916;BME280;58557;50.982;-3.222;2023-03-13T07:57:54;98354.50;;;9.70;80.48
70916;BME280;58557;50.982;-3.222;2023-03-13T08:00:21;98358.81;;;10.67;78.72
70916;BME280;58557;50.982;-3.222;2023-03-13T08:02:45;98354.52;;;9.75;78.22
70916;BME280;58557;50.982;-3.222;2023-03-13T08:05:10;98365.07;;;9.51;78.99
70916;BME280;58557;50.982;-3.222;2023-03-13T08:07:35;98347.71;;;10.22;77.15
70916;BME280;58557;50.982;-3.222;2023-03-13T08:10:01;98354.76;;;9.96;77.11
70916;BME280;58557;50.982;-3.222;2023-03-13T08:12:26;98371.09;;;10.78;74.10
70916;BME280;58557;50.982;-3.222;2023-03-13T08:14:52;98354.95;;;10.00;77.05
70916;BME280;58557;50.982;-3.222;2023-03-13T08:17:17;98357.80;;;10.49;75.01
70916;BME280;58557;50.982;-3.222;2023-03-13T08:19:42;98360.90;;;10.11;76.26
70916;BME280;58557;50.982;-3.222;2023-03-13T08:22:08;98357.93;;;10.09;75.98
70916;BME280;58557;50.982;-3.222;2023-03-13T08:24:34;98368.93;;;10.03;75.67
70916;BME280;58557;50.982;-3.222;2023-03-13T08:27:00;98349.75;;;9.91;75.89
70916;BME280;58557;50.982;-3.222;2023-03-13T08:29:25;98350.62;;;9.28;78.24
70916;BME280;58557;50.982;-3.222;2023-03-13T08:31:50;98348.98;;;9.64;78.75
70916;BME280;58557;50.982;-3.222;2023-03-13T08:34:17;98347.65;;;10.00;76.39
70916;BME280;58557;50.982;-3.222;2023-03-13T08:36:42;98336.38;;;9.41;77.98
70916;BME280;58557;50.982;-3.222;2023-03-13T08:39:10;98346.95;;;9.88;77.19
70916;BME280;58557;50.982;-3.222;2023-03-13T08:41:33;98344.57;;;10.21;75.80
70916;BME280;58557;50.982;-3.222;2023-03-13T08:43:57;98343.45;;;10.17;76.50
70916;BME280;58557;50.982;-3.222;2023-03-13T08:46:23;98343.29;;;10.17;75.06
70916;BME280;58557;50.982;-3.222;2023-03-13T08:48:49;98342.57;;;10.19;74.37
70916;BME280;58557;50.982;-3.222;2023-03-13T08:51:14;98354.44;;;10.10;73.84
70916;BME280;58557;50.982;-3.222;2023-03-13T08:53:40;98359.14;;;10.03;74.58
70916;BME280;58557;50.982;-3.222;2023-03-13T08:56:05;98360.58;;;10.34;72.63
70916;BME280;58557;50.982;-3.222;2023-03-13T08:58:35;98356.09;;;10.24;73.93
70916;BME280;58557;50.982;-3.222;2023-03-13T09:01:00;98354.69;;;9.55;74.18
70916;BME280;58557;50.982;-3.222;2023-03-13T09:03:20;98342.94;;;10.02;73.39
70916;BME280;58557;50.982;-3.222;2023-03-13T09:05:45;98345.69;;;10.34;71.68
70916;BME280;58557;50.982;-3.222;2023-03-13T09:08:11;98343.87;;;11.23;69.49
70916;BME280;58557;50.982;-3.222;2023-03-13T09:10:36;98352.00;;;10.74;69.89
70916;BME280;58557;50.982;-3.222;2023-03-13T09:13:01;98349.70;;;10.28;72.04
70916;BME280;58557;50.982;-3.222;2023-03-13T09:15:26;98335.95;;;11.55;68.71
70916;BME280;58557;50.982;-3.222;2023-03-13T09:17:52;98342.35;;;11.63;67.46
70916;BME280;58557;50.982;-3.222;2023-03-13T09:20:18;98350.20;;;11.03;67.20
70916;BME280;58557;50.982;-3.222;2023-03-13T09:22:43;98344.65;;;10.91;67.84
70916;BME280;58557;50.982;-3.222;2023-03-13T09:25:09;98342.07;;;10.62;67.26
70916;BME280;58557;50.982;-3.222;2023-03-13T09:27:34;98353.13;;;10.49;69.20
70916;BME280;58557;50.982;-3.222;2023-03-13T09:29:59;98350.51;;;10.98;67.61
70916;BME280;58557;50.982;-3.222;2023-03-13T09:32:25;98360.80;;;10.51;69.38
70916;BME280;58557;50.982;-3.222;2023-03-13T09:34:51;98344.09;;;11.36;65.52
70916;BME280;58557;50.982;-3.222;2023-03-13T09:37:16;98354.86;;;11.21;65.83
70916;BME280;58557;50.982;-3.222;2023-03-13T09:39:41;98350.31;;;11.78;64.75
70916;BME280;58557;50.982;-3.222;2023-03-13T09:42:12;98354.44;;;11.51;64.09
70916;BME280;58557;50.982;-3.222;2023-03-13T09:44:36;98349.48;;;11.62;65.99
70916;BME280;58557;50.982;-3.222;2023-03-13T09:47:02;98369.54;;;11.22;65.25
70916;BME280;58557;50.982;-3.222;2023-03-13T09:49:29;98359.56;;;11.15;66.47
70916;BME280;58557;50.982;-3.222;2023-03-13T09:51:52;98362.49;;;10.55;67.66
70916;BME280;58557;50.982;-3.222;2023-03-13T09:54:23;98362.93;;;10.52;69.47
70916;BME280;58557;50.982;-3.222;2023-03-13T09:56:44;98355.93;;;10.82;69.08
70916;BME280;58557;50.982;-3.222;2023-03-13T09:59:12;98357.24;;;10.39;69.50
70916;BME280;58557;50.982;-3.222;2023-03-13T10:01:32;98351.97;;;11.59;66.98
70916;BME280;58557;50.982;-3.222;2023-03-13T10:04:04;98352.49;;;11.85;64.95
70916;BME280;58557;50.982;-3.222;2023-03-13T10:06:21;98354.81;;;10.67;68.21
70916;BME280;58557;50.982;-3.222;2023-03-13T10:08:46;98363.12;;;11.05;67.32
70916;BME280;58557;50.982;-3.222;2023-03-13T10:11:19;98366.94;;;10.95;67.91
70916;BME280;58557;50.982;-3.222;2023-03-13T10:13:43;98350.44;;;10.95;67.28
70916;BME280;58557;50.982;-3.222;2023-03-13T10:16:07;98366.10;;;11.29;67.03
70916;BME280;58557;50.982;-3.222;2023-03-13T10:18:28;98348.37;;;10.95;67.68
70916;BME280;58557;50.982;-3.222;2023-03-13T10:20:57;98347.48;;;11.29;66.59
70916;BME280;58557;50.982;-3.222;2023-03-13T10:23:25;98344.31;;;11.72;65.64
70916;BME280;58557;50.982;-3.222;2023-03-13T10:25:45;98336.32;;;11.74;65.11
70916;BME280;58557;50.982;-3.222;2023-03-13T10:28:12;98346.98;;;11.52;64.62
70916;BME280;58557;50.982;-3.222;2023-03-13T10:30:37;98343.17;;;12.45;62.72
70916;BME280;58557;50.982;-3.222;2023-03-13T10:35:33;98331.90;;;12.01;64.01
70916;BME280;58557;50.982;-3.222;2023-03-13T10:38:00;98329.00;;;12.06;62.62
70916;BME280;58557;50.982;-3.222;2023-03-13T10:40:22;98337.60;;;11.33;64.42
70916;BME280;58557;50.982;-3.222;2023-03-13T10:42:44;98334.75;;;12.18;63.03
70916;BME280;58557;50.982;-3.222;2023-03-13T10:45:13;98341.05;;;12.42;61.64
70916;BME280;58557;50.982;-3.222;2023-03-13T10:47:37;98344.90;;;12.05;62.03
70916;BME280;58557;50.982;-3.222;2023-03-13T10:50:01;98347.52;;;12.52;62.44
70916;BME280;58557;50.982;-3.222;2023-03-13T10:52:31;98332.67;;;12.55;61.95
70916;BME280;58557;50.982;-3.222;2023-03-13T10:54:50;98344.30;;;12.34;62.74
70916;BME280;58557;50.982;-3.222;2023-03-13T10:57:28;98339.84;;;12.22;64.34
70916;BME280;58557;50.982;-3.222;2023-03-13T10:59:43;98344.52;;;12.38;62.99
70916;BME280;58557;50.982;-3.222;2023-03-13T11:04:34;98340.99;;;12.32;63.65
70916;BME280;58557;50.982;-3.222;2023-03-13T11:07:01;98341.03;;;12.66;62.55
70916;BME280;58557;50.982;-3.222;2023-03-13T11:09:23;98341.07;;;12.96;61.82
70916;BME280;58557;50.982;-3.222;2023-03-13T11:11:51;98345.11;;;12.63;61.46
70916;BME280;58557;50.982;-3.222;2023-03-13T11:14:16;98343.85;;;12.36;63.47
70916;BME280;58557;50.982;-3.222;2023-03-13T11:16:46;98350.32;;;12.88;61.62
70916;BME280;58557;50.982;-3.222;2023-03-13T11:19:24;98335.93;;;11.86;62.64
70916;BME280;58557;50.982;-3.222;2023-03-13T11:21:39;98350.72;;;11.55;65.73
70916;BME280;58557;50.982;-3.222;2023-03-13T11:24:00;98341.32;;;11.23;65.36
70916;BME280;58557;50.982;-3.222;2023-03-13T11:26:28;98343.73;;;11.58;64.25
70916;BME280;58557;50.982;-3.222;2023-03-13T11:28:53;98349.62;;;11.40;64.40
70916;BME280;58557;50.982;-3.222;2023-03-13T11:31:14;98339.07;;;11.72;63.71
70916;BME280;58557;50.982;-3.222;2023-03-13T11:33:46;98329.28;;;11.41;63.96
70916;BME280;58557;50.982;-3.222;2023-03-13T11:36:11;98337.68;;;11.54;63.89
70916;BME280;58557;50.982;-3.222;2023-03-13T11:38:34;98336.65;;;12.11;61.85
70916;BME280;58557;50.982;-3.222;2023-03-13T11:41:02;98338.85;;;12.10;63.06
70916;BME280;58557;50.982;-3.222;2023-03-13T11:43:29;98332.94;;;12.16;62.83
70916;BME280;58557;50.982;-3.222;2023-03-13T11:46:05;98330.10;;;12.10;62.72
70916;BME280;58557;50.982;-3.222;2023-03-13T11:48:18;98337.69;;;11.75;62.98
70916;BME280;58557;50.982;-3.222;2023-03-13T11:50:39;98331.77;;;12.36;63.05
70916;BME280;58557;50.982;-3.222;2023-03-13T11:53:11;98330.14;;;11.87;62.84
70916;BME280;58557;50.982;-3.222;2023-03-13T11:55:36;98332.40;;;11.52;64.81
70916;BME280;58557;50.982;-3.222;2023-03-13T11:58:02;98340.40;;;11.63;64.73
70916;BME280;58557;50.982;-3.222;2023-03-13T12:00:24;98329.74;;;11.87;63.85
70916;BME280;58557;50.982;-3.222;2023-03-13T12:02:49;98324.41;;;11.62;64.47
70916;BME280;58557;50.982;-3.222;2023-03-13T12:05:14;98329.30;;;12.10;62.89
70916;BME280;58557;50.982;-3.222;2023-03-13T12:07:37;98329.04;;;12.26;62.01
70916;BME280;58557;50.982;-3.222;2023-03-13T12:10:02;98327.48;;;11.92;63.20
70916;BME280;58557;50.982;-3.222;2023-03-13T12:12:33;98337.15;;;12.36;63.56
70916;BME280;58557;50.982;-3.222;2023-03-13T12:14:54;98335.10;;;11.51;65.79
70916;BME280;58557;50.982;-3.222;2023-03-13T12:17:24;98331.24;;;11.44;68.73
70916;BME280;58557;50.982;-3.222;2023-03-13T12:19:46;98319.64;;;11.13;69.67
70916;BME280;58557;50.982;-3.222;2023-03-13T12:22:13;98329.26;;;11.69;70.11
70916;BME280;58557;50.982;-3.222;2023-03-13T12:24:35;98317.85;;;11.41;70.22
70916;BME280;58557;50.982;-3.222;2023-03-13T12:27:01;98309.12;;;11.37;69.54
70916;BME280;58557;50.982;-3.222;2023-03-13T12:29:36;98304.37;;;12.52;66.88
70916;BME280;58557;50.982;-3.222;2023-03-13T12:31:53;98305.80;;;11.85;66.98
70916;BME280;58557;50.982;-3.222;2023-03-13T12:34:19;98310.91;;;11.45;68.25
70916;BME280;58557;50.982;-3.222;2023-03-13T12:36:42;98307.01;;;11.18;70.01
70916;BME280;58557;50.982;-3.222;2023-03-13T12:39:14;98300.89;;;10.94;71.51
70916;BME280;58557;50.982;-3.222;2023-03-13T12:41:35;98299.85;;;10.85;71.44
70916;BME280;58557;50.982;-3.222;2023-03-13T12:43:56;98291.26;;;11.36;70.73
70916;BME280;58557;50.982;-3.222;2023-03-13T12:46:33;98290.88;;;11.18;69.88
70916;BME280;58557;50.982;-3.222;2023-03-13T12:49:00;98277.17;;;11.54;69.93
70916;BME280;58557;50.982;-3.222;2023-03-13T12:51:27;98268.76;;;11.49;69.14
70916;BME280;58557;50.982;-3.222;2023-03-13T12:53:49;98263.97;;;12.31;66.55
70916;BME280;58557;50.982;-3.222;2023-03-13T12:56:12;98260.40;;;11.45;67.48
70916;BME280;58557;50.982;-3.222;2023-03-13T12:58:41;98265.65;;;11.76;66.60
70916;BME280;58557;50.982;-3.222;2023-03-13T13:01:01;98262.10;;;11.92;65.94
70916;BME280;58557;50.982;-3.222;2023-03-13T13:03:29;98259.43;;;11.65;68.89
70916;BME280;58557;50.982;-3.222;2023-03-13T13:05:57;98256.93;;;11.24;71.90
70916;BME280;58557;50.982;-3.222;2023-03-13T13:10:37;98258.91;;;11.83;69.40
70916;BME280;58557;50.982;-3.222;2023-03-13T13:13:17;98246.26;;;11.81;70.48
70916;BME280;58557;50.982;-3.222;2023-03-13T13:15:29;98250.55;;;12.04;72.21